Granger, Texas
Current Conditions -  °F | °C
As of 11:58 AM on Monday 26 Jan 2015 (Local Time) from KGRK Reporting Station
Clear Clear  
Wind Chill: 64°   Ceiling: Unl
Heat Index: 64°   Visibility: 10mi
Dew Point: 35°   Wind: 14mph
Humidity: 34%   Direction: 290°WNW
Pressure: 30.24"   Gusts: 20mph
Location:  30.72°N, 97.44°W
Report Text: KGRK 261758Z AUTO 29012G17KT 10SM CLR 18/02 A3024 RMK AO2 SLP237 T01750016 10175 20061 58006
Loading
Personal Weather Stations






























Interactive Weather Map New forecast layout! Learn more

10-Day Weather Forecast

Advertisements
Track Severe Weather on mobile